Time;durP1;ratioP1;P1;durP2;ratioP2;P2;SDS_P1;SDS_P2;PMS_P1;PMS_P2;Temp;Humidity;BMP_temperature;BMP_pressure;BME280_temperature;BME280_humidity;BME280_pressure;Samples;Min_cycle;Max_cycle;Signal;HPM_P1;HPM_P2
2022/12/27 00:02:16;;;;;;;2.17;0.80;;;;;;;;;;5032537;28;20158;-75
2022/12/27 00:04:42;;;;;;;2.85;0.80;;;;;;;;;;5023574;28;20049;-74
2022/12/27 00:07:08;;;;;;;1.00;0.63;;;;;;;;;;5028316;28;20056;-74
2022/12/27 00:09:34;;;;;;;1.67;0.70;;;;;;;;;;5028184;28;20033;-74
2022/12/27 00:12:00;;;;;;;1.52;0.65;;;;;;;;;;5025113;28;20048;-74
2022/12/27 00:14:26;;;;;;;1.23;0.68;;;;;;;;;;5027418;28;20025;-74
2022/12/27 00:16:52;;;;;;;0.50;0.45;;;;;;;;;;5035235;28;20036;-74
2022/12/27 00:19:18;;;;;;;1.00;0.50;;;;;;;;;;5032881;28;20079;-74
2022/12/27 00:21:44;;;;;;;0.80;0.52;;;;;;;;;;5026727;28;20112;-74
2022/12/27 00:24:10;;;;;;;1.02;0.40;;;;;;;;;;5027960;28;20037;-74
2022/12/27 00:26:38;;;;;;;0.75;0.70;;;;;;;;;;5027992;28;20032;-74
2022/12/27 00:29:04;;;;;;;1.30;0.60;;;;;;;;;;5028031;28;20041;-75
2022/12/27 00:31:31;;;;;;;3.25;0.50;;;;;;;;;;5027142;28;20432;-74
2022/12/27 00:33:58;;;;;;;2.22;0.60;;;;;;;;;;5022369;28;20041;-74
2022/12/27 00:36:25;;;;;;;1.23;0.50;;;;;;;;;;5026500;28;20696;-74
2022/12/27 00:38:51;;;;;;;2.83;0.60;;;;;;;;;;5026514;28;20033;-75
2022/12/27 00:41:17;;;;;;;2.90;0.57;;;;;;;;;;5029147;28;20065;-74
2022/12/27 00:43:43;;;;;;;0.98;0.40;;;;;;;;;;5027725;28;20029;-74
2022/12/27 00:46:09;;;;;;;0.65;0.52;;;;;;;;;;5026299;28;20022;-74
2022/12/27 00:48:36;;;;;;;5.05;1.25;;;;;;;;;;5020824;28;20124;-74
2022/12/27 00:51:07;;;;;;;0.63;0.50;;;;;;;;;;5032324;28;20026;-74
2022/12/27 00:53:33;;;;;;;2.63;0.93;;;;;;;;;;5022817;28;20025;-74
2022/12/27 00:56:00;;;;;;;0.63;0.55;;;;;;;;;;5026342;28;20041;-74
2022/12/27 00:58:26;;;;;;;0.63;0.60;;;;;;;;;;5025273;28;20037;-74
2022/12/27 01:00:51;;;;;;;0.60;0.60;;;;;;;;;;5024023;28;20021;-74
2022/12/27 01:03:18;;;;;;;2.63;0.77;;;;;;;;;;5030728;28;20488;-74
2022/12/27 01:05:44;;;;;;;0.98;0.60;;;;;;;;;;5026828;28;20052;-75
2022/12/27 01:08:10;;;;;;;1.25;0.45;;;;;;;;;;5034276;28;20033;-75
2022/12/27 01:10:36;;;;;;;0.30;0.30;;;;;;;;;;5027526;28;20092;-74
2022/12/27 01:13:02;;;;;;;1.55;0.40;;;;;;;;;;5027602;28;20381;-74
2022/12/27 01:15:28;;;;;;;1.30;0.70;;;;;;;;;;5025698;28;20537;-74
2022/12/27 01:17:54;;;;;;;0.43;0.43;;;;;;;;;;5030957;28;20432;-74
2022/12/27 01:20:21;;;;;;;2.53;0.40;;;;;;;;;;5026883;28;20043;-75
2022/12/27 01:22:47;;;;;;;0.77;0.50;;;;;;;;;;5028178;28;20033;-74
2022/12/27 01:25:13;;;;;;;0.57;0.47;;;;;;;;;;5028510;28;20433;-74
2022/12/27 01:27:39;;;;;;;0.47;0.47;;;;;;;;;;5031748;28;20033;-75
2022/12/27 01:30:05;;;;;;;2.65;0.55;;;;;;;;;;5025568;28;20084;-74
2022/12/27 01:32:32;;;;;;;2.45;0.77;;;;;;;;;;5026272;28;20518;-74
2022/12/27 01:34:58;;;;;;;4.00;0.68;;;;;;;;;;5025019;28;20476;-74
2022/12/27 01:37:24;;;;;;;0.52;0.35;;;;;;;;;;5025596;28;20052;-75
2022/12/27 01:39:50;;;;;;;3.40;0.65;;;;;;;;;;5027778;28;20029;-74
2022/12/27 01:45:02;;;;;;;0.60;0.50;;;;;;;;;;5027109;28;20044;-74
2022/12/27 01:47:42;;;;;;;1.92;0.40;;;;;;;;;;5036937;28;20022;-75
2022/12/27 01:50:13;;;;;;;1.55;0.60;;;;;;;;;;5030786;28;20026;-74
2022/12/27 01:52:39;;;;;;;2.28;0.55;;;;;;;;;;5030281;28;20029;-74
2022/12/27 01:55:13;;;;;;;1.48;0.52;;;;;;;;;;5030378;28;20094;-74
2022/12/27 01:57:40;;;;;;;1.85;0.60;;;;;;;;;;5029546;28;20018;-74
2022/12/27 02:00:06;;;;;;;2.00;0.40;;;;;;;;;;5035718;28;20068;-74
2022/12/27 02:02:32;;;;;;;0.35;0.35;;;;;;;;;;5031042;28;20025;-74
2022/12/27 02:04:58;;;;;;;1.92;0.57;;;;;;;;;;5029452;28;20384;-75
2022/12/27 02:07:29;;;;;;;0.65;0.40;;;;;;;;;;5026010;28;20044;-74
2022/12/27 02:09:56;;;;;;;1.98;0.40;;;;;;;;;;5030036;28;20395;-74
2022/12/27 02:12:23;;;;;;;0.22;0.22;;;;;;;;;;5026761;28;20045;-74
2022/12/27 02:14:49;;;;;;;1.15;0.60;;;;;;;;;;5028445;28;20028;-75
2022/12/27 02:17:23;;;;;;;1.23;0.95;;;;;;;;;;5030379;28;20435;-74
2022/12/27 02:19:52;;;;;;;1.13;0.47;;;;;;;;;;5026734;28;20029;-74
2022/12/27 02:22:21;;;;;;;0.40;0.40;;;;;;;;;;5028594;28;20035;-75
2022/12/27 02:25:11;;;;;;;1.98;0.60;;;;;;;;;;5028140;28;20439;-74
2022/12/27 02:27:47;;;;;;;1.27;0.50;;;;;;;;;;5031648;28;20498;-74
2022/12/27 02:30:19;;;;;;;4.47;0.88;;;;;;;;;;5030686;28;20075;-74
2022/12/27 02:32:58;;;;;;;0.40;0.40;;;;;;;;;;5038814;28;20503;-74
2022/12/27 02:35:31;;;;;;;0.52;0.50;;;;;;;;;;5022507;28;20056;-74
2022/12/27 02:38:17;;;;;;;0.52;0.28;;;;;;;;;;5029161;28;20033;-74
2022/12/27 02:55:11;;;;;;;2.13;0.60;;;;;;;;;;5028865;28;20136;-74
2022/12/27 02:57:57;;;;;;;0.65;0.30;;;;;;;;;;5026054;28;20174;-74
2022/12/27 03:03:27;;;;;;;1.00;0.63;;;;;;;;;;5029178;28;20113;-74
2022/12/27 03:06:38;;;;;;;0.98;0.40;;;;;;;;;;5023041;28;20025;-74
2022/12/27 03:08:56;;;;;;;0.30;0.30;;;;;;;;;;5027212;28;20045;-74
2022/12/27 03:17:22;;;;;;;0.63;0.50;;;;;;;;;;5028297;28;20036;-74
2022/12/27 03:25:29;;;;;;;0.85;0.40;;;;;;;;;;5029316;28;20087;-74
2022/12/27 03:33:31;;;;;;;1.60;0.50;;;;;;;;;;5021963;28;20092;-74
2022/12/27 03:39:29;;;;;;;0.22;0.22;;;;;;;;;;5002613;28;20041;-75
2022/12/27 03:44:46;;;;;;;2.60;0.30;;;;;;;;;;5027661;28;20041;-74
2022/12/27 03:47:24;;;;;;;1.75;0.52;;;;;;;;;;5031014;28;20022;-74
2022/12/27 03:49:53;;;;;;;1.02;0.55;;;;;;;;;;5026253;28;20030;-75
2022/12/27 03:52:22;;;;;;;0.50;0.40;;;;;;;;;;5022964;28;20021;-74
2022/12/27 03:54:50;;;;;;;1.27;0.40;;;;;;;;;;5027470;28;20037;-75
2022/12/27 03:57:20;;;;;;;0.95;0.52;;;;;;;;;;5022145;28;20025;-75
2022/12/27 03:59:47;;;;;;;0.30;0.30;;;;;;;;;;5024787;28;20035;-74
2022/12/27 04:02:13;;;;;;;1.52;0.65;;;;;;;;;;5034683;28;20065;-74
2022/12/27 04:04:39;;;;;;;0.73;0.50;;;;;;;;;;5025753;28;20025;-74
2022/12/27 04:07:05;;;;;;;1.00;0.60;;;;;;;;;;5030909;28;20025;-74
2022/12/27 04:36:58;;;;;;;1.20;0.60;;;;;;;;;;5022865;28;20518;-74
2022/12/27 04:39:24;;;;;;;1.20;0.73;;;;;;;;;;5025890;28;20026;-74
2022/12/27 04:55:47;;;;;;;2.85;0.60;;;;;;;;;;5024385;28;20103;-74
2022/12/27 04:58:13;;;;;;;2.00;0.60;;;;;;;;;;5021254;28;20696;-75
2022/12/27 05:03:24;;;;;;;0.60;0.50;;;;;;;;;;5026910;28;20037;-73
2022/12/27 05:05:51;;;;;;;0.65;0.35;;;;;;;;;;5024396;28;20029;-74
2022/12/27 05:13:59;;;;;;;1.83;0.55;;;;;;;;;;5015777;28;20060;-74
2022/12/27 05:16:38;;;;;;;0.40;0.35;;;;;;;;;;5027854;28;20014;-74
2022/12/27 05:19:05;;;;;;;2.63;0.40;;;;;;;;;;5025565;28;20055;-75
2022/12/27 05:21:34;;;;;;;0.52;0.43;;;;;;;;;;5028958;28;20589;-74
2022/12/27 05:26:45;;;;;;;0.88;0.47;;;;;;;;;;5030849;28;20076;-74
2022/12/27 05:29:11;;;;;;;1.27;0.50;;;;;;;;;;5031855;28;20026;-74
2022/12/27 05:31:37;;;;;;;3.95;0.65;;;;;;;;;;5032506;28;20025;-74
2022/12/27 05:34:04;;;;;;;0.65;0.43;;;;;;;;;;5028872;28;20185;-74
2022/12/27 05:36:30;;;;;;;1.55;0.70;;;;;;;;;;5026256;28;20033;-74
2022/12/27 05:38:57;;;;;;;0.57;0.50;;;;;;;;;;5029816;28;20052;-74
2022/12/27 05:41:23;;;;;;;0.35;0.35;;;;;;;;;;5038875;28;20042;-74
2022/12/27 05:43:49;;;;;;;2.70;0.50;;;;;;;;;;5030902;28;20025;-75
2022/12/27 05:46:19;;;;;;;0.93;0.52;;;;;;;;;;5029627;28;20025;-74
2022/12/27 05:48:45;;;;;;;1.38;0.60;;;;;;;;;;5029515;28;20578;-75
2022/12/27 05:51:13;;;;;;;1.77;0.50;;;;;;;;;;5028149;28;20034;-74
2022/12/27 05:53:39;;;;;;;0.55;0.55;;;;;;;;;;5029531;28;20030;-74
2022/12/27 05:56:05;;;;;;;0.50;0.30;;;;;;;;;;5026666;28;21404;-74
2022/12/27 05:58:31;;;;;;;0.90;0.60;;;;;;;;;;5031108;28;20029;-75
2022/12/27 06:00:58;;;;;;;0.75;0.50;;;;;;;;;;5025605;28;20020;-74
2022/12/27 06:03:24;;;;;;;1.23;0.50;;;;;;;;;;5030807;28;20477;-74
2022/12/27 06:05:50;;;;;;;1.77;0.60;;;;;;;;;;5027776;28;20025;-74
2022/12/27 06:08:16;;;;;;;1.55;0.55;;;;;;;;;;5029946;28;20025;-74
2022/12/27 06:10:42;;;;;;;1.23;0.50;;;;;;;;;;5028488;28;20042;-74
2022/12/27 06:13:08;;;;;;;1.25;0.60;;;;;;;;;;5036341;28;20049;-75
2022/12/27 06:15:34;;;;;;;1.58;0.70;;;;;;;;;;5026849;28;20030;-74
2022/12/27 06:18:02;;;;;;;1.85;0.60;;;;;;;;;;5025978;28;20024;-74
2022/12/27 06:20:28;;;;;;;0.55;0.50;;;;;;;;;;5031654;28;20025;-75
2022/12/27 06:22:54;;;;;;;0.35;0.35;;;;;;;;;;5028427;28;20033;-75
2022/12/27 06:25:20;;;;;;;0.63;0.30;;;;;;;;;;5025094;28;20030;-74
2022/12/27 06:27:46;;;;;;;0.35;0.30;;;;;;;;;;5028306;28;20022;-75
2022/12/27 06:30:12;;;;;;;0.50;0.50;;;;;;;;;;5027321;28;20029;-74
2022/12/27 06:32:38;;;;;;;2.05;0.80;;;;;;;;;;5027006;28;20160;-74
2022/12/27 06:35:04;;;;;;;0.77;0.50;;;;;;;;;;5026974;28;20078;-74
2022/12/27 06:37:30;;;;;;;2.78;0.65;;;;;;;;;;5032704;28;20038;-75
2022/12/27 06:39:57;;;;;;;0.82;0.47;;;;;;;;;;5032768;28;20030;-75
2022/12/27 06:42:23;;;;;;;1.02;0.50;;;;;;;;;;5033939;28;20457;-74
2022/12/27 06:44:49;;;;;;;0.65;0.40;;;;;;;;;;5027213;28;20041;-74
2022/12/27 06:47:14;;;;;;;0.60;0.30;;;;;;;;;;5028220;28;20021;-74
2022/12/27 06:49:40;;;;;;;0.40;0.40;;;;;;;;;;5027995;28;20033;-75
2022/12/27 06:52:06;;;;;;;1.75;0.63;;;;;;;;;;5029655;28;20030;-75
2022/12/27 06:54:32;;;;;;;1.25;0.47;;;;;;;;;;5029378;28;20036;-74
2022/12/27 06:56:58;;;;;;;0.70;0.40;;;;;;;;;;5029381;28;20041;-75
2022/12/27 06:59:24;;;;;;;2.45;0.60;;;;;;;;;;5033561;28;20022;-74
2022/12/27 07:01:50;;;;;;;1.42;0.38;;;;;;;;;;5032978;28;20025;-74
2022/12/27 07:04:16;;;;;;;1.63;0.70;;;;;;;;;;5030531;28;20392;-74
2022/12/27 07:06:42;;;;;;;0.50;0.50;;;;;;;;;;5030026;28;20032;-76
2022/12/27 07:09:08;;;;;;;0.95;0.60;;;;;;;;;;5023532;28;20025;-76
2022/12/27 07:11:35;;;;;;;0.63;0.40;;;;;;;;;;5020341;28;20096;-75
2022/12/27 07:14:01;;;;;;;0.25;0.25;;;;;;;;;;5029366;28;20455;-75
2022/12/27 07:16:29;;;;;;;3.08;0.57;;;;;;;;;;5025522;28;20049;-76
2022/12/27 07:18:56;;;;;;;0.47;0.47;;;;;;;;;;5022806;28;20103;-76
2022/12/27 07:22:03;;;;;;;1.88;0.32;;;;;;;;;;5024901;28;20469;-75
2022/12/27 07:24:32;;;;;;;1.20;0.50;;;;;;;;;;5023475;28;20753;-76
2022/12/27 07:26:58;;;;;;;0.93;0.55;;;;;;;;;;5027123;28;20033;-76
2022/12/27 07:29:24;;;;;;;1.27;0.50;;;;;;;;;;5018903;28;20595;-76
2022/12/27 07:31:49;;;;;;;0.80;0.50;;;;;;;;;;5026077;28;20109;-76
2022/12/27 07:34:16;;;;;;;5.05;0.57;;;;;;;;;;5025677;28;20025;-76
2022/12/27 07:36:42;;;;;;;0.70;0.43;;;;;;;;;;5026408;28;20491;-76
2022/12/27 07:39:08;;;;;;;0.80;0.50;;;;;;;;;;5022415;28;20492;-76
2022/12/27 07:41:34;;;;;;;2.78;0.70;;;;;;;;;;5028477;28;20029;-76
2022/12/27 07:44:01;;;;;;;1.15;0.43;;;;;;;;;;5025457;28;20044;-76
2022/12/27 07:46:27;;;;;;;0.35;0.35;;;;;;;;;;5022164;28;20029;-76
2022/12/27 07:48:54;;;;;;;0.50;0.40;;;;;;;;;;5026170;28;20607;-75
2022/12/27 07:51:20;;;;;;;2.67;0.50;;;;;;;;;;5025817;28;20500;-76
2022/12/27 07:53:48;;;;;;;0.73;0.68;;;;;;;;;;5027056;28;20041;-76
2022/12/27 07:56:18;;;;;;;0.65;0.38;;;;;;;;;;5022037;28;20083;-76
2022/12/27 07:58:45;;;;;;;1.42;0.50;;;;;;;;;;5024913;28;20029;-76
2022/12/27 08:01:12;;;;;;;1.08;0.88;;;;;;;;;;5023626;28;20033;-76
2022/12/27 08:03:38;;;;;;;1.30;0.60;;;;;;;;;;5022838;28;20149;-76
2022/12/27 08:06:05;;;;;;;0.80;0.80;;;;;;;;;;5024816;28;20048;-76
2022/12/27 08:08:42;;;;;;;2.53;0.70;;;;;;;;;;5024902;28;20029;-76
2022/12/27 08:11:08;;;;;;;3.67;1.00;;;;;;;;;;5021924;28;20120;-76
2022/12/27 08:13:34;;;;;;;1.17;0.60;;;;;;;;;;5024852;28;20091;-77
2022/12/27 08:16:01;;;;;;;0.52;0.40;;;;;;;;;;5025291;28;20203;-77
2022/12/27 08:18:27;;;;;;;1.63;0.70;;;;;;;;;;5020007;28;20478;-78
2022/12/27 08:20:53;;;;;;;1.30;0.47;;;;;;;;;;5021190;28;20039;-77
2022/12/27 08:23:19;;;;;;;1.25;0.57;;;;;;;;;;5032231;28;20041;-87
2022/12/27 08:25:45;;;;;;;3.30;0.60;;;;;;;;;;5029476;28;20412;-76
2022/12/27 08:28:12;;;;;;;0.50;0.43;;;;;;;;;;5023951;28;20039;-79
2022/12/27 08:30:39;;;;;;;0.43;0.43;;;;;;;;;;5023546;28;20684;-79
2022/12/27 08:33:04;;;;;;;1.40;0.50;;;;;;;;;;5032615;28;20762;-80
2022/12/27 08:35:31;;;;;;;0.40;0.40;;;;;;;;;;5032607;28;20033;-81
2022/12/27 08:38:01;;;;;;;0.40;0.40;;;;;;;;;;5022871;28;20037;-79
2022/12/27 08:40:27;;;;;;;0.60;0.50;;;;;;;;;;5024375;28;20032;-76
2022/12/27 08:42:53;;;;;;;1.30;0.80;;;;;;;;;;5024965;28;20461;-81
2022/12/27 08:45:19;;;;;;;2.45;0.80;;;;;;;;;;5021696;28;20036;-79
2022/12/27 08:47:45;;;;;;;0.65;0.40;;;;;;;;;;5026648;28;20032;-79
2022/12/27 08:50:11;;;;;;;1.00;0.60;;;;;;;;;;5025637;28;20033;-79
2022/12/27 08:52:37;;;;;;;0.47;0.40;;;;;;;;;;5032705;28;20052;-81
2022/12/27 08:55:03;;;;;;;1.08;0.57;;;;;;;;;;5027028;28;20036;-79
2022/12/27 08:57:29;;;;;;;1.33;0.47;;;;;;;;;;5031383;28;20040;-85
2022/12/27 08:59:55;;;;;;;0.43;0.40;;;;;;;;;;5025616;28;20424;-79
2022/12/27 09:02:21;;;;;;;1.35;0.60;;;;;;;;;;5029472;28;20029;-81
2022/12/27 09:04:47;;;;;;;1.13;0.60;;;;;;;;;;5020070;28;20047;-78
2022/12/27 09:07:13;;;;;;;0.30;0.30;;;;;;;;;;5017699;28;20035;-79
2022/12/27 09:09:39;;;;;;;1.08;0.60;;;;;;;;;;5020373;28;20033;-77
2022/12/27 09:12:05;;;;;;;0.60;0.60;;;;;;;;;;5035307;28;20028;-77
2022/12/27 09:14:34;;;;;;;0.95;0.60;;;;;;;;;;5021616;28;20669;-77
2022/12/27 09:17:00;;;;;;;0.60;0.40;;;;;;;;;;5021358;28;20044;-77
2022/12/27 09:19:26;;;;;;;1.95;0.43;;;;;;;;;;5021439;28;20278;-77
2022/12/27 09:21:52;;;;;;;2.42;0.90;;;;;;;;;;5032485;28;20041;-77
2022/12/27 09:24:21;;;;;;;3.45;0.60;;;;;;;;;;5025274;28;20017;-76
2022/12/27 09:26:47;;;;;;;2.50;0.70;;;;;;;;;;5027584;28;20029;-77
2022/12/27 09:29:13;;;;;;;0.25;0.22;;;;;;;;;;5024979;28;20041;-77
2022/12/27 09:31:39;;;;;;;0.95;0.65;;;;;;;;;;5022891;28;21907;-77
2022/12/27 09:34:05;;;;;;;1.15;0.50;;;;;;;;;;5027794;28;20044;-77
2022/12/27 09:36:31;;;;;;;0.75;0.60;;;;;;;;;;5024198;28;20040;-77
2022/12/27 09:38:58;;;;;;;0.65;0.40;;;;;;;;;;5026200;28;20021;-77
2022/12/27 09:41:33;;;;;;;2.00;0.55;;;;;;;;;;5026736;28;20519;-77
2022/12/27 09:44:01;;;;;;;1.30;0.50;;;;;;;;;;5027620;28;20412;-77
2022/12/27 09:46:42;;;;;;;0.50;0.38;;;;;;;;;;5026921;28;20075;-77
2022/12/27 09:49:12;;;;;;;2.58;1.45;;;;;;;;;;5025048;28;20029;-77
2022/12/27 09:51:59;;;;;;;3.35;0.60;;;;;;;;;;5025547;28;20029;-77
2022/12/27 09:54:26;;;;;;;0.82;0.52;;;;;;;;;;5024052;28;20118;-78
2022/12/27 09:56:52;;;;;;;3.10;0.80;;;;;;;;;;5026271;28;20424;-77
2022/12/27 09:59:24;;;;;;;0.50;0.50;;;;;;;;;;5024056;28;20021;-77
2022/12/27 10:01:51;;;;;;;2.03;0.70;;;;;;;;;;5031863;28;20052;-77
2022/12/27 10:04:20;;;;;;;1.67;0.60;;;;;;;;;;5034559;28;20033;-77
2022/12/27 10:06:48;;;;;;;1.23;0.50;;;;;;;;;;5028012;28;20450;-77
2022/12/27 10:09:14;;;;;;;1.48;0.60;;;;;;;;;;5032068;28;20017;-77
2022/12/27 10:11:48;;;;;;;0.47;0.40;;;;;;;;;;5029803;28;20086;-78
2022/12/27 10:14:26;;;;;;;2.25;0.68;;;;;;;;;;5043970;28;20613;-77
2022/12/27 10:16:55;;;;;;;0.57;0.32;;;;;;;;;;5034049;28;20029;-77
2022/12/27 10:19:27;;;;;;;2.33;0.70;;;;;;;;;;5033675;28;20098;-76
2022/12/27 10:21:58;;;;;;;1.60;0.50;;;;;;;;;;5041155;28;20043;-77
2022/12/27 10:24:29;;;;;;;0.82;0.70;;;;;;;;;;5034269;28;20021;-77
2022/12/27 10:26:55;;;;;;;1.10;0.70;;;;;;;;;;5031445;28;20045;-76
2022/12/27 10:29:22;;;;;;;1.00;0.60;;;;;;;;;;5030332;28;20691;-76
2022/12/27 10:31:48;;;;;;;0.80;0.50;;;;;;;;;;5030705;28;20510;-77
2022/12/27 10:34:16;;;;;;;0.65;0.60;;;;;;;;;;5031853;28;20538;-76
2022/12/27 10:36:42;;;;;;;0.73;0.60;;;;;;;;;;5031178;28;20680;-76
2022/12/27 10:39:19;;;;;;;0.63;0.40;;;;;;;;;;5033582;28;20036;-76
2022/12/27 10:42:00;;;;;;;0.73;0.73;;;;;;;;;;5029864;28;20086;-77
2022/12/27 10:44:26;;;;;;;1.15;0.50;;;;;;;;;;5037410;28;20523;-77
2022/12/27 10:46:53;;;;;;;3.70;1.00;;;;;;;;;;5031000;28;20021;-76
2022/12/27 10:49:24;;;;;;;0.55;0.55;;;;;;;;;;5031286;28;20493;-76
2022/12/27 10:51:55;;;;;;;1.05;0.70;;;;;;;;;;5034645;28;20021;-76
2022/12/27 10:54:23;;;;;;;0.70;0.60;;;;;;;;;;5028957;28;20041;-76
2022/12/27 10:56:49;;;;;;;1.15;0.70;;;;;;;;;;5030422;28;20029;-76
2022/12/27 10:59:17;;;;;;;2.45;0.77;;;;;;;;;;5030789;28;20053;-76
2022/12/27 11:01:44;;;;;;;0.93;0.50;;;;;;;;;;5030785;28;20029;-76
2022/12/27 11:04:19;;;;;;;0.63;0.63;;;;;;;;;;5039300;28;20247;-77
2022/12/27 11:06:47;;;;;;;2.42;0.60;;;;;;;;;;5032213;28;20034;-76
2022/12/27 11:09:36;;;;;;;0.65;0.65;;;;;;;;;;5029170;28;20022;-76
2022/12/27 11:12:14;;;;;;;1.00;0.63;;;;;;;;;;5030599;28;20077;-76
2022/12/27 11:14:52;;;;;;;0.93;0.75;;;;;;;;;;5030352;28;20496;-77
2022/12/27 11:17:20;;;;;;;1.52;0.77;;;;;;;;;;5029094;28;20025;-76
2022/12/27 11:19:47;;;;;;;0.70;0.70;;;;;;;;;;5029410;28;20052;-76
2022/12/27 11:22:13;;;;;;;1.35;0.68;;;;;;;;;;5030315;28;20025;-76
2022/12/27 11:24:45;;;;;;;1.00;0.70;;;;;;;;;;5041732;28;20045;-76
2022/12/27 11:27:20;;;;;;;1.70;0.70;;;;;;;;;;5030946;28;20025;-76
2022/12/27 11:29:46;;;;;;;0.70;0.70;;;;;;;;;;5032725;28;20420;-77
2022/12/27 11:32:12;;;;;;;0.95;0.60;;;;;;;;;;5037045;28;20131;-76
2022/12/27 11:34:42;;;;;;;0.50;0.50;;;;;;;;;;5030000;28;20057;-76
2022/12/27 11:37:13;;;;;;;1.02;0.50;;;;;;;;;;5029228;28;20034;-76
2022/12/27 11:39:42;;;;;;;0.63;0.63;;;;;;;;;;5028510;28;20683;-77
2022/12/27 11:42:12;;;;;;;1.25;0.60;;;;;;;;;;5025899;28;20029;-77
2022/12/27 11:44:41;;;;;;;0.82;0.80;;;;;;;;;;5027982;28;20216;-83
2022/12/27 11:47:13;;;;;;;1.20;0.75;;;;;;;;;;5031656;28;20558;-76
2022/12/27 11:49:50;;;;;;;0.82;0.65;;;;;;;;;;5031441;28;20021;-80
2022/12/27 11:52:32;;;;;;;1.52;0.50;;;;;;;;;;5029053;28;20476;-77
2022/12/27 11:55:03;;;;;;;1.80;0.80;;;;;;;;;;5027413;28;20083;-77
2022/12/27 11:57:29;;;;;;;;;;;;;;;;;;5028898;28;20039;-76
2022/12/27 11:59:55;;;;;;;2.42;0.80;;;;;;;;;;5023879;28;19909;-72
2022/12/27 12:02:47;;;;;;;1.55;0.75;;;;;;;;;;5026933;28;20442;-75
2022/12/27 12:05:16;;;;;;;0.60;0.60;;;;;;;;;;5026301;28;20061;-77
2022/12/27 12:07:50;;;;;;;1.98;1.13;;;;;;;;;;5019419;28;20092;-75
2022/12/27 12:10:22;;;;;;;0.75;0.70;;;;;;;;;;5022591;28;20061;-84
2022/12/27 12:13:02;;;;;;;0.80;0.68;;;;;;;;;;5022869;28;20068;-81
2022/12/27 12:15:41;;;;;;;0.60;0.60;;;;;;;;;;5023515;28;20128;-77
2022/12/27 12:18:13;;;;;;;1.33;0.90;;;;;;;;;;5023640;28;20036;-82
2022/12/27 12:20:43;;;;;;;1.42;0.60;;;;;;;;;;5027578;28;20029;-79
2022/12/27 12:23:15;;;;;;;0.70;0.60;;;;;;;;;;5031711;28;20036;-83
2022/12/27 12:25:46;;;;;;;2.33;1.00;;;;;;;;;;5026564;28;20052;-88
2022/12/27 12:28:40;;;;;;;0.40;0.40;;;;;;;;;;5022566;28;20029;-84
2022/12/27 12:31:13;;;;;;;0.77;0.60;;;;;;;;;;5029930;28;20042;-82
2022/12/27 12:34:04;;;;;;;1.30;0.93;;;;;;;;;;5025006;28;20049;-80
2022/12/27 12:36:37;;;;;;;5.20;1.52;;;;;;;;;;5021407;28;20049;-80
2022/12/27 12:39:29;;;;;;;3.65;1.88;;;;;;;;;;5029125;28;20032;-83
2022/12/27 12:42:04;;;;;;;9.45;3.90;;;;;;;;;;5028586;28;20488;-87
2022/12/27 12:44:39;;;;;;;16.27;7.20;;;;;;;;;;5021473;28;20104;-75
2022/12/27 12:47:08;;;;;;;8.85;4.70;;;;;;;;;;5025539;28;20029;-87
2022/12/27 12:49:34;;;;;;;9.60;5.13;;;;;;;;;;5028540;28;20439;-85
2022/12/27 12:52:18;;;;;;;11.35;5.38;;;;;;;;;;5028891;28;20060;-86
2022/12/27 12:54:49;;;;;;;22.83;7.60;;;;;;;;;;5028530;28;20125;-88
2022/12/27 12:57:34;;;;;;;12.13;5.30;;;;;;;;;;5027633;28;20283;-87
2022/12/27 13:00:08;;;;;;;14.57;6.30;;;;;;;;;;5030704;28;20123;-77
2022/12/27 13:03:06;;;;;;;11.25;5.70;;;;;;;;;;5025993;28;20112;-80
2022/12/27 13:05:43;;;;;;;15.50;6.43;;;;;;;;;;5001047;28;20033;-80
2022/12/27 13:08:17;;;;;;;16.63;7.50;;;;;;;;;;5029210;28;20032;-86
2022/12/27 13:10:55;;;;;;;16.75;7.55;;;;;;;;;;5027801;28;20030;-91
2022/12/27 13:13:40;;;;;;;19.30;8.75;;;;;;;;;;5032030;28;20397;-88
2022/12/27 13:16:15;;;;;;;26.23;13.35;;;;;;;;;;5018400;28;20433;-77
2022/12/27 13:19:00;;;;;;;26.27;9.80;;;;;;;;;;5025222;28;20056;-78
2022/12/27 13:21:29;;;;;;;21.35;9.55;;;;;;;;;;5031637;28;20060;-90
2022/12/27 13:24:00;;;;;;;19.88;9.23;;;;;;;;;;5033830;28;20463;-85
2022/12/27 13:26:38;;;;;;;21.83;9.77;;;;;;;;;;5026816;28;20041;-86
2022/12/27 13:29:19;;;;;;;21.13;9.70;;;;;;;;;;5037587;28;20491;-79
2022/12/27 13:32:04;;;;;;;21.13;9.88;;;;;;;;;;5013805;28;20872;-79
2022/12/27 13:34:44;;;;;;;24.52;9.82;;;;;;;;;;5025165;28;20087;-79
2022/12/27 13:37:15;;;;;;;22.02;9.85;;;;;;;;;;5019415;28;20150;-81
2022/12/27 13:39:44;;;;;;;21.10;10.02;;;;;;;;;;5019064;28;20022;-80
2022/12/27 13:42:13;;;;;;;23.23;10.05;;;;;;;;;;5015005;28;20048;-78
2022/12/27 13:44:49;;;;;;;28.52;11.45;;;;;;;;;;5058527;28;20396;-78
2022/12/27 13:47:26;;;;;;;22.65;10.15;;;;;;;;;;5028029;28;20033;-79
2022/12/27 13:49:52;;;;;;;20.80;9.80;;;;;;;;;;5031150;28;20210;-78
2022/12/27 13:52:38;;;;;;;20.00;10.18;;;;;;;;;;5025442;28;20476;-78
2022/12/27 13:55:19;;;;;;;28.77;10.68;;;;;;;;;;5027780;28;20041;-78
2022/12/27 13:57:59;;;;;;;25.90;10.68;;;;;;;;;;5033855;28;20028;-78
2022/12/27 14:00:28;;;;;;;25.27;11.02;;;;;;;;;;5027371;28;20112;-77
2022/12/27 14:03:18;;;;;;;24.95;10.48;;;;;;;;;;5028535;28;20049;-78
2022/12/27 14:05:53;;;;;;;23.27;12.02;;;;;;;;;;5026129;28;20029;-79
2022/12/27 14:08:31;;;;;;;20.70;9.98;;;;;;;;;;5027214;28;20123;-78
2022/12/27 14:11:17;;;;;;;23.38;11.18;;;;;;;;;;5023317;28;20026;-79
2022/12/27 14:13:43;;;;;;;25.20;11.52;;;;;;;;;;5028720;28;20049;-78
2022/12/27 14:16:25;;;;;;;28.60;11.73;;;;;;;;;;5032319;28;20026;-78
2022/12/27 14:19:01;;;;;;;20.42;10.32;;;;;;;;;;5024854;28;20035;-78
2022/12/27 14:21:50;;;;;;;20.48;10.77;;;;;;;;;;5023575;28;20030;-79
2022/12/27 14:24:32;;;;;;;27.98;11.82;;;;;;;;;;5025483;28;20134;-79
2022/12/27 14:27:11;;;;;;;19.08;9.95;;;;;;;;;;5029965;28;20025;-79
2022/12/27 14:29:56;;;;;;;24.15;11.10;;;;;;;;;;5023433;28;20030;-84
2022/12/27 14:32:39;;;;;;;31.02;11.07;;;;;;;;;;5022939;28;20060;-85
2022/12/27 14:35:11;;;;;;;19.50;9.98;;;;;;;;;;5032133;28;20067;-85
2022/12/27 14:37:49;;;;;;;22.75;10.40;;;;;;;;;;5032741;28;20108;-84
2022/12/27 14:40:35;;;;;;;24.83;10.48;;;;;;;;;;5033812;28;20043;-79
2022/12/27 14:43:21;;;;;;;24.77;10.80;;;;;;;;;;5028288;28;20038;-80
2022/12/27 14:46:00;;;;;;;23.00;11.07;;;;;;;;;;5028486;28;20476;-80
2022/12/27 14:48:36;;;;;;;25.40;10.90;;;;;;;;;;5023373;28;20048;-79
2022/12/27 14:51:17;;;;;;;17.83;9.50;;;;;;;;;;5030479;28;20022;-81
2022/12/27 14:53:49;;;;;;;23.45;10.10;;;;;;;;;;5038261;28;20119;-81
2022/12/27 14:56:25;;;;;;;20.08;10.02;;;;;;;;;;5029136;28;20025;-80
2022/12/27 14:59:14;;;;;;;19.65;9.98;;;;;;;;;;5018697;28;20036;-82
2022/12/27 15:01:49;;;;;;;16.27;9.20;;;;;;;;;;5023226;28;20083;-81
2022/12/27 15:04:41;;;;;;;17.42;9.57;;;;;;;;;;5027144;28;20156;-81
2022/12/27 15:07:18;;;;;;;18.92;9.85;;;;;;;;;;5021791;28;20029;-80
2022/12/27 15:09:44;;;;;;;18.55;9.73;;;;;;;;;;5024596;28;20017;-81
2022/12/27 15:12:17;;;;;;;19.73;9.45;;;;;;;;;;5025040;28;20044;-81
2022/12/27 15:15:06;;;;;;;20.08;9.65;;;;;;;;;;5024493;28;20587;-81
2022/12/27 15:17:47;;;;;;;19.55;8.77;;;;;;;;;;5017935;28;20609;-80
2022/12/27 15:20:21;;;;;;;14.18;7.97;;;;;;;;;;5023523;28;20104;-79
2022/12/27 15:22:59;;;;;;;17.08;8.45;;;;;;;;;;5025818;28;20048;-80
2022/12/27 15:25:35;;;;;;;21.73;8.98;;;;;;;;;;5018330;28;20036;-80
2022/12/27 15:28:06;;;;;;;19.50;8.68;;;;;;;;;;5025263;28;20519;-81
2022/12/27 15:30:54;;;;;;;13.95;7.75;;;;;;;;;;5024482;28;20048;-81
2022/12/27 15:33:20;;;;;;;17.83;8.75;;;;;;;;;;5020465;28;20053;-80
2022/12/27 15:35:55;;;;;;;22.42;8.23;;;;;;;;;;5026259;28;20021;-80
2022/12/27 15:38:40;;;;;;;16.42;7.75;;;;;;;;;;5022461;28;20120;-79
2022/12/27 15:41:06;;;;;;;21.20;8.25;;;;;;;;;;5022543;28;20033;-79
2022/12/27 15:43:50;;;;;;;14.02;7.45;;;;;;;;;;5019185;28;20498;-79
2022/12/27 15:46:22;;;;;;;16.45;7.90;;;;;;;;;;5019905;28;20396;-79
2022/12/27 15:49:05;;;;;;;14.00;7.68;;;;;;;;;;5019860;28;20372;-80
2022/12/27 15:51:32;;;;;;;15.95;7.93;;;;;;;;;;5023756;28;20644;-80
2022/12/27 15:53:58;;;;;;;19.05;7.78;;;;;;;;;;5020377;28;20113;-81
2022/12/27 15:56:35;;;;;;;15.43;6.68;;;;;;;;;;5025289;28;20806;-79
2022/12/27 15:59:20;;;;;;;16.33;6.97;;;;;;;;;;5021281;28;20029;-81
2022/12/27 16:01:46;;;;;;;16.38;6.18;;;;;;;;;;5019814;28;20033;-82
2022/12/27 16:04:31;;;;;;;21.70;7.05;;;;;;;;;;5018093;28;20021;-81
2022/12/27 16:06:57;;;;;;;14.02;7.07;;;;;;;;;;5016555;28;20039;-81
2022/12/27 16:09:23;;;;;;;14.98;6.72;;;;;;;;;;5023081;28;20041;-79
2022/12/27 16:12:04;;;;;;;12.38;6.15;;;;;;;;;;5020501;28;20040;-86
2022/12/27 16:14:35;;;;;;;12.63;6.57;;;;;;;;;;5023403;28;20030;-80
2022/12/27 16:17:20;;;;;;;14.27;6.28;;;;;;;;;;5020829;28;20110;-86
2022/12/27 16:19:57;;;;;;;13.57;6.40;;;;;;;;;;5033750;28;20062;-84
2022/12/27 16:22:30;;;;;;;17.00;6.07;;;;;;;;;;5030848;28;20083;-80
2022/12/27 16:25:02;;;;;;;12.68;6.85;;;;;;;;;;5024836;28;20475;-82
2022/12/27 16:27:30;;;;;;;12.10;6.20;;;;;;;;;;5024464;28;20091;-80
2022/12/27 16:29:56;;;;;;;12.10;6.13;;;;;;;;;;5022656;28;20542;-80
2022/12/27 16:32:23;;;;;;;13.05;6.20;;;;;;;;;;5022567;28;20045;-79
2022/12/27 16:34:53;;;;;;;13.73;6.05;;;;;;;;;;5032532;28;20033;-80
2022/12/27 16:37:22;;;;;;;12.60;5.60;;;;;;;;;;5027178;28;20034;-80